sensor_id;sensor_type;location;lat;lon;timestamp;P1;durP1;ratioP1;P2;durP2;ratioP2
18188;SDS011;9219;50.396;8.546;2022-07-29T00:01:03;5.80;;;1.60;;
18188;SDS011;9219;50.396;8.546;2022-07-29T00:03:31;4.37;;;1.53;;
18188;SDS011;9219;50.396;8.546;2022-07-29T00:08:39;3.13;;;1.40;;
18188;SDS011;9219;50.396;8.546;2022-07-29T00:11:07;5.77;;;1.57;;
18188;SDS011;9219;50.396;8.546;2022-07-29T00:13:34;5.30;;;1.70;;
18188;SDS011;9219;50.396;8.546;2022-07-29T00:16:02;4.13;;;1.30;;
18188;SDS011;9219;50.396;8.546;2022-07-29T00:18:30;2.63;;;1.77;;
18188;SDS011;9219;50.396;8.546;2022-07-29T00:20:58;4.90;;;1.87;;
18188;SDS011;9219;50.396;8.546;2022-07-29T00:23:26;9.07;;;1.70;;
18188;SDS011;9219;50.396;8.546;2022-07-29T00:30:53;2.97;;;1.20;;
18188;SDS011;9219;50.396;8.546;2022-07-29T00:33:20;3.23;;;1.63;;
18188;SDS011;9219;50.396;8.546;2022-07-29T00:35:49;3.40;;;1.87;;
18188;SDS011;9219;50.396;8.546;2022-07-29T00:38:18;2.40;;;1.70;;
18188;SDS011;9219;50.396;8.546;2022-07-29T00:40:46;3.83;;;2.03;;
18188;SDS011;9219;50.396;8.546;2022-07-29T00:43:14;5.30;;;3.00;;
18188;SDS011;9219;50.396;8.546;2022-07-29T00:45:41;5.57;;;2.70;;
18188;SDS011;9219;50.396;8.546;2022-07-29T00:53:14;3.17;;;2.90;;
18188;SDS011;9219;50.396;8.546;2022-07-29T00:55:41;6.67;;;3.27;;
18188;SDS011;9219;50.396;8.546;2022-07-29T00:58:09;6.37;;;3.30;;
18188;SDS011;9219;50.396;8.546;2022-07-29T01:00:38;4.00;;;3.07;;
18188;SDS011;9219;50.396;8.546;2022-07-29T01:03:06;7.50;;;3.83;;
18188;SDS011;9219;50.396;8.546;2022-07-29T01:05:34;8.27;;;3.93;;
18188;SDS011;9219;50.396;8.546;2022-07-29T01:08:18;4.13;;;3.30;;
18188;SDS011;9219;50.396;8.546;2022-07-29T01:13:53;4.67;;;3.80;;
18188;SDS011;9219;50.396;8.546;2022-07-29T01:16:21;5.83;;;3.87;;
18188;SDS011;9219;50.396;8.546;2022-07-29T01:19:00;7.30;;;3.80;;
18188;SDS011;9219;50.396;8.546;2022-07-29T01:21:43;7.47;;;2.90;;
18188;SDS011;9219;50.396;8.546;2022-07-29T01:24:23;3.70;;;3.20;;
18188;SDS011;9219;50.396;8.546;2022-07-29T01:27:15;4.57;;;3.23;;
18188;SDS011;9219;50.396;8.546;2022-07-29T01:30:00;10.00;;;3.03;;
18188;SDS011;9219;50.396;8.546;2022-07-29T01:37:01;4.20;;;2.20;;
18188;SDS011;9219;50.396;8.546;2022-07-29T01:39:35;3.47;;;2.53;;
18188;SDS011;9219;50.396;8.546;2022-07-29T01:42:06;3.60;;;3.23;;
18188;SDS011;9219;50.396;8.546;2022-07-29T01:44:41;5.37;;;2.30;;
18188;SDS011;9219;50.396;8.546;2022-07-29T01:47:15;2.80;;;2.50;;
18188;SDS011;9219;50.396;8.546;2022-07-29T01:49:47;4.07;;;2.80;;
18188;SDS011;9219;50.396;8.546;2022-07-29T01:52:20;2.87;;;2.47;;
18188;SDS011;9219;50.396;8.546;2022-07-29T01:59:11;4.40;;;2.77;;
18188;SDS011;9219;50.396;8.546;2022-07-29T02:01:39;3.33;;;2.50;;
18188;SDS011;9219;50.396;8.546;2022-07-29T02:04:11;2.73;;;2.40;;
18188;SDS011;9219;50.396;8.546;2022-07-29T02:06:56;3.70;;;2.10;;
18188;SDS011;9219;50.396;8.546;2022-07-29T02:09:28;3.73;;;2.40;;
18188;SDS011;9219;50.396;8.546;2022-07-29T02:11:57;2.63;;;2.20;;
18188;SDS011;9219;50.396;8.546;2022-07-29T02:14:29;3.47;;;2.77;;
18188;SDS011;9219;50.396;8.546;2022-07-29T02:22:05;3.50;;;2.57;;
18188;SDS011;9219;50.396;8.546;2022-07-29T02:24:33;2.57;;;2.30;;
18188;SDS011;9219;50.396;8.546;2022-07-29T02:27:02;3.50;;;2.43;;
18188;SDS011;9219;50.396;8.546;2022-07-29T02:29:31;2.83;;;2.37;;
18188;SDS011;9219;50.396;8.546;2022-07-29T02:32:01;3.20;;;2.70;;
18188;SDS011;9219;50.396;8.546;2022-07-29T02:34:30;3.00;;;2.70;;
18188;SDS011;9219;50.396;8.546;2022-07-29T02:37:00;3.43;;;2.67;;
18188;SDS011;9219;50.396;8.546;2022-07-29T02:44:35;3.63;;;2.77;;
18188;SDS011;9219;50.396;8.546;2022-07-29T02:47:04;4.70;;;3.40;;
18188;SDS011;9219;50.396;8.546;2022-07-29T02:49:38;3.70;;;3.00;;
18188;SDS011;9219;50.396;8.546;2022-07-29T02:52:11;3.50;;;2.83;;
18188;SDS011;9219;50.396;8.546;2022-07-29T02:54:46;3.03;;;2.70;;
18188;SDS011;9219;50.396;8.546;2022-07-29T02:57:18;4.33;;;3.57;;
18188;SDS011;9219;50.396;8.546;2022-07-29T02:59:50;4.47;;;3.80;;
18188;SDS011;9219;50.396;8.546;2022-07-29T03:06:46;3.50;;;3.13;;
18188;SDS011;9219;50.396;8.546;2022-07-29T03:09:15;2.97;;;2.63;;
18188;SDS011;9219;50.396;8.546;2022-07-29T03:11:42;3.77;;;2.90;;
18188;SDS011;9219;50.396;8.546;2022-07-29T03:14:16;4.97;;;3.43;;
18188;SDS011;9219;50.396;8.546;2022-07-29T03:16:46;3.30;;;2.70;;
18188;SDS011;9219;50.396;8.546;2022-07-29T03:19:14;5.30;;;3.47;;
18188;SDS011;9219;50.396;8.546;2022-07-29T03:21:42;4.47;;;3.00;;
18188;SDS011;9219;50.396;8.546;2022-07-29T03:29:11;6.80;;;3.40;;
18188;SDS011;9219;50.396;8.546;2022-07-29T03:31:39;5.50;;;3.30;;
18188;SDS011;9219;50.396;8.546;2022-07-29T03:34:09;5.87;;;3.80;;
18188;SDS011;9219;50.396;8.546;2022-07-29T03:36:36;3.90;;;3.50;;
18188;SDS011;9219;50.396;8.546;2022-07-29T03:39:03;7.20;;;4.00;;
18188;SDS011;9219;50.396;8.546;2022-07-29T03:41:32;10.33;;;2.80;;
18188;SDS011;9219;50.396;8.546;2022-07-29T03:44:02;5.10;;;3.10;;
18188;SDS011;9219;50.396;8.546;2022-07-29T03:51:31;5.77;;;3.63;;
18188;SDS011;9219;50.396;8.546;2022-07-29T03:53:59;5.00;;;3.40;;
18188;SDS011;9219;50.396;8.546;2022-07-29T03:56:40;4.63;;;3.40;;
18188;SDS011;9219;50.396;8.546;2022-07-29T03:59:15;4.83;;;3.03;;
18188;SDS011;9219;50.396;8.546;2022-07-29T04:01:46;6.63;;;3.70;;
18188;SDS011;9219;50.396;8.546;2022-07-29T04:04:14;5.13;;;3.67;;
18188;SDS011;9219;50.396;8.546;2022-07-29T04:06:44;11.60;;;4.10;;
18188;SDS011;9219;50.396;8.546;2022-07-29T04:14:18;4.47;;;3.60;;
18188;SDS011;9219;50.396;8.546;2022-07-29T04:16:46;4.70;;;3.63;;
18188;SDS011;9219;50.396;8.546;2022-07-29T04:19:13;6.00;;;3.40;;
18188;SDS011;9219;50.396;8.546;2022-07-29T04:21:41;4.07;;;3.50;;
18188;SDS011;9219;50.396;8.546;2022-07-29T04:24:10;5.97;;;3.57;;
18188;SDS011;9219;50.396;8.546;2022-07-29T04:26:41;6.27;;;3.23;;
18188;SDS011;9219;50.396;8.546;2022-07-29T04:29:09;7.83;;;3.33;;
18188;SDS011;9219;50.396;8.546;2022-07-29T04:36:37;4.23;;;3.33;;
18188;SDS011;9219;50.396;8.546;2022-07-29T04:39:05;5.17;;;3.50;;
18188;SDS011;9219;50.396;8.546;2022-07-29T04:41:32;3.80;;;3.10;;
18188;SDS011;9219;50.396;8.546;2022-07-29T04:43:59;3.17;;;2.80;;
18188;SDS011;9219;50.396;8.546;2022-07-29T04:46:31;4.67;;;3.37;;
18188;SDS011;9219;50.396;8.546;2022-07-29T04:48:58;5.80;;;3.27;;
18188;SDS011;9219;50.396;8.546;2022-07-29T04:51:25;5.80;;;2.93;;
18188;SDS011;9219;50.396;8.546;2022-07-29T04:58:18;4.00;;;3.00;;
18188;SDS011;9219;50.396;8.546;2022-07-29T05:00:46;3.83;;;2.73;;
18188;SDS011;9219;50.396;8.546;2022-07-29T05:03:14;4.33;;;2.83;;
18188;SDS011;9219;50.396;8.546;2022-07-29T05:05:41;7.30;;;2.87;;
18188;SDS011;9219;50.396;8.546;2022-07-29T05:08:09;7.03;;;3.37;;
18188;SDS011;9219;50.396;8.546;2022-07-29T05:10:36;5.73;;;3.13;;
18188;SDS011;9219;50.396;8.546;2022-07-29T05:13:07;6.07;;;2.50;;
18188;SDS011;9219;50.396;8.546;2022-07-29T05:20:38;4.40;;;3.27;;
18188;SDS011;9219;50.396;8.546;2022-07-29T05:23:06;4.03;;;2.43;;
18188;SDS011;9219;50.396;8.546;2022-07-29T05:25:33;5.10;;;2.80;;
18188;SDS011;9219;50.396;8.546;2022-07-29T05:28:09;3.20;;;2.27;;
18188;SDS011;9219;50.396;8.546;2022-07-29T05:30:37;5.13;;;2.87;;
18188;SDS011;9219;50.396;8.546;2022-07-29T05:33:04;5.30;;;2.80;;
18188;SDS011;9219;50.396;8.546;2022-07-29T05:35:57;3.37;;;2.50;;
18188;SDS011;9219;50.396;8.546;2022-07-29T05:43:30;5.37;;;3.30;;
18188;SDS011;9219;50.396;8.546;2022-07-29T05:45:58;8.23;;;2.67;;
18188;SDS011;9219;50.396;8.546;2022-07-29T05:48:25;5.30;;;2.73;;
18188;SDS011;9219;50.396;8.546;2022-07-29T05:50:52;3.27;;;2.60;;
18188;SDS011;9219;50.396;8.546;2022-07-29T05:53:21;5.67;;;3.10;;
18188;SDS011;9219;50.396;8.546;2022-07-29T05:55:48;4.27;;;2.37;;
18188;SDS011;9219;50.396;8.546;2022-07-29T05:58:17;4.43;;;2.23;;
18188;SDS011;9219;50.396;8.546;2022-07-29T06:05:41;4.20;;;2.50;;
18188;SDS011;9219;50.396;8.546;2022-07-29T06:08:08;8.27;;;3.63;;
18188;SDS011;9219;50.396;8.546;2022-07-29T06:10:35;4.23;;;2.73;;
18188;SDS011;9219;50.396;8.546;2022-07-29T06:13:03;6.10;;;3.00;;
18188;SDS011;9219;50.396;8.546;2022-07-29T06:15:30;9.23;;;2.90;;
18188;SDS011;9219;50.396;8.546;2022-07-29T06:17:59;4.67;;;2.60;;
18188;SDS011;9219;50.396;8.546;2022-07-29T06:20:27;6.90;;;3.27;;
18188;SDS011;9219;50.396;8.546;2022-07-29T06:27:53;4.10;;;2.53;;
18188;SDS011;9219;50.396;8.546;2022-07-29T06:30:20;7.57;;;3.30;;
18188;SDS011;9219;50.396;8.546;2022-07-29T06:32:49;3.30;;;2.37;;
18188;SDS011;9219;50.396;8.546;2022-07-29T06:35:17;3.07;;;2.70;;
18188;SDS011;9219;50.396;8.546;2022-07-29T06:38:04;4.50;;;2.70;;
18188;SDS011;9219;50.396;8.546;2022-07-29T06:40:52;3.47;;;2.40;;
18188;SDS011;9219;50.396;8.546;2022-07-29T06:43:32;6.60;;;2.97;;
18188;SDS011;9219;50.396;8.546;2022-07-29T06:46:21;3.70;;;2.53;;
18188;SDS011;9219;50.396;8.546;2022-07-29T06:48:49;3.97;;;1.97;;
18188;SDS011;9219;50.396;8.546;2022-07-29T06:51:18;8.40;;;2.80;;
18188;SDS011;9219;50.396;8.546;2022-07-29T06:53:49;4.57;;;2.60;;
18188;SDS011;9219;50.396;8.546;2022-07-29T06:56:28;10.13;;;2.90;;
18188;SDS011;9219;50.396;8.546;2022-07-29T06:59:05;4.10;;;2.30;;
18188;SDS011;9219;50.396;8.546;2022-07-29T07:01:34;5.67;;;2.40;;
18188;SDS011;9219;50.396;8.546;2022-07-29T07:09:02;3.60;;;2.47;;
18188;SDS011;9219;50.396;8.546;2022-07-29T07:11:30;7.17;;;2.50;;
18188;SDS011;9219;50.396;8.546;2022-07-29T07:13:57;4.13;;;2.10;;
18188;SDS011;9219;50.396;8.546;2022-07-29T07:16:39;6.40;;;2.67;;
18188;SDS011;9219;50.396;8.546;2022-07-29T07:19:06;6.83;;;2.80;;
18188;SDS011;9219;50.396;8.546;2022-07-29T07:21:34;3.40;;;2.73;;
18188;SDS011;9219;50.396;8.546;2022-07-29T07:24:03;7.07;;;2.83;;
18188;SDS011;9219;50.396;8.546;2022-07-29T07:30:46;2.90;;;2.00;;
18188;SDS011;9219;50.396;8.546;2022-07-29T07:33:13;4.53;;;2.67;;
18188;SDS011;9219;50.396;8.546;2022-07-29T07:35:44;4.13;;;2.80;;
18188;SDS011;9219;50.396;8.546;2022-07-29T07:38:12;4.07;;;2.40;;
18188;SDS011;9219;50.396;8.546;2022-07-29T07:40:40;4.83;;;2.57;;
18188;SDS011;9219;50.396;8.546;2022-07-29T07:43:08;5.57;;;2.53;;
18188;SDS011;9219;50.396;8.546;2022-07-29T07:45:36;4.60;;;2.73;;
18188;SDS011;9219;50.396;8.546;2022-07-29T07:48:07;6.30;;;2.60;;
18188;SDS011;9219;50.396;8.546;2022-07-29T07:55:39;5.77;;;2.63;;
18188;SDS011;9219;50.396;8.546;2022-07-29T07:58:27;2.87;;;2.50;;
18188;SDS011;9219;50.396;8.546;2022-07-29T08:00:55;5.20;;;2.40;;
18188;SDS011;9219;50.396;8.546;2022-07-29T08:03:22;6.73;;;2.33;;
18188;SDS011;9219;50.396;8.546;2022-07-29T08:05:49;3.27;;;2.30;;
18188;SDS011;9219;50.396;8.546;2022-07-29T08:08:17;7.33;;;2.67;;
18188;SDS011;9219;50.396;8.546;2022-07-29T08:10:46;4.47;;;2.53;;
18188;SDS011;9219;50.396;8.546;2022-07-29T08:16:15;4.27;;;2.17;;
18188;SDS011;9219;50.396;8.546;2022-07-29T08:18:44;4.13;;;2.43;;
18188;SDS011;9219;50.396;8.546;2022-07-29T08:21:12;4.87;;;2.50;;
18188;SDS011;9219;50.396;8.546;2022-07-29T08:23:41;4.10;;;2.70;;
18188;SDS011;9219;50.396;8.546;2022-07-29T08:26:41;3.80;;;2.60;;
18188;SDS011;9219;50.396;8.546;2022-07-29T08:29:10;3.63;;;2.50;;
18188;SDS011;9219;50.396;8.546;2022-07-29T08:31:41;3.97;;;2.47;;
18188;SDS011;9219;50.396;8.546;2022-07-29T08:39:16;4.20;;;2.37;;
18188;SDS011;9219;50.396;8.546;2022-07-29T08:41:44;4.67;;;2.10;;
18188;SDS011;9219;50.396;8.546;2022-07-29T08:44:22;6.10;;;3.03;;
18188;SDS011;9219;50.396;8.546;2022-07-29T08:46:56;2.93;;;2.53;;
18188;SDS011;9219;50.396;8.546;2022-07-29T08:49:23;6.63;;;2.60;;
18188;SDS011;9219;50.396;8.546;2022-07-29T08:51:51;4.80;;;2.13;;
18188;SDS011;9219;50.396;8.546;2022-07-29T08:54:21;5.17;;;2.20;;
18188;SDS011;9219;50.396;8.546;2022-07-29T08:56:51;4.90;;;2.20;;
18188;SDS011;9219;50.396;8.546;2022-07-29T09:04:25;4.47;;;2.20;;
18188;SDS011;9219;50.396;8.546;2022-07-29T09:06:59;6.47;;;2.77;;
18188;SDS011;9219;50.396;8.546;2022-07-29T09:09:33;2.13;;;1.67;;
18188;SDS011;9219;50.396;8.546;2022-07-29T09:12:01;4.60;;;2.27;;
18188;SDS011;9219;50.396;8.546;2022-07-29T09:14:32;4.60;;;2.70;;
18188;SDS011;9219;50.396;8.546;2022-07-29T09:16:59;3.23;;;2.33;;
18188;SDS011;9219;50.396;8.546;2022-07-29T09:19:30;2.43;;;1.80;;
18188;SDS011;9219;50.396;8.546;2022-07-29T09:24:54;3.87;;;2.00;;
18188;SDS011;9219;50.396;8.546;2022-07-29T09:27:22;2.20;;;1.80;;
18188;SDS011;9219;50.396;8.546;2022-07-29T09:29:56;3.30;;;1.93;;
18188;SDS011;9219;50.396;8.546;2022-07-29T09:32:25;4.43;;;2.37;;
18188;SDS011;9219;50.396;8.546;2022-07-29T09:37:44;5.67;;;2.60;;
18188;SDS011;9219;50.396;8.546;2022-07-29T09:40:16;3.07;;;2.10;;
18188;SDS011;9219;50.396;8.546;2022-07-29T09:47:51;7.13;;;2.77;;
18188;SDS011;9219;50.396;8.546;2022-07-29T09:50:20;3.03;;;2.37;;
18188;SDS011;9219;50.396;8.546;2022-07-29T09:52:50;4.60;;;2.57;;
18188;SDS011;9219;50.396;8.546;2022-07-29T09:55:19;4.33;;;2.40;;
18188;SDS011;9219;50.396;8.546;2022-07-29T09:57:47;5.40;;;2.50;;
18188;SDS011;9219;50.396;8.546;2022-07-29T10:00:17;5.37;;;2.70;;
18188;SDS011;9219;50.396;8.546;2022-07-29T10:02:49;3.57;;;2.03;;
18188;SDS011;9219;50.396;8.546;2022-07-29T10:10:36;3.70;;;2.33;;
18188;SDS011;9219;50.396;8.546;2022-07-29T10:13:06;4.07;;;2.50;;
18188;SDS011;9219;50.396;8.546;2022-07-29T10:15:41;4.07;;;2.43;;
18188;SDS011;9219;50.396;8.546;2022-07-29T10:18:12;4.50;;;2.20;;
18188;SDS011;9219;50.396;8.546;2022-07-29T10:20:42;2.60;;;1.80;;
18188;SDS011;9219;50.396;8.546;2022-07-29T10:23:11;2.67;;;1.80;;
18188;SDS011;9219;50.396;8.546;2022-07-29T10:25:39;4.43;;;2.50;;
18188;SDS011;9219;50.396;8.546;2022-07-29T10:31:06;5.80;;;2.30;;
18188;SDS011;9219;50.396;8.546;2022-07-29T10:33:45;3.33;;;2.40;;
18188;SDS011;9219;50.396;8.546;2022-07-29T10:36:22;4.53;;;2.60;;
18188;SDS011;9219;50.396;8.546;2022-07-29T10:39:00;3.47;;;1.97;;
18188;SDS011;9219;50.396;8.546;2022-07-29T10:44:30;3.50;;;2.00;;
18188;SDS011;9219;50.396;8.546;2022-07-29T10:47:01;4.30;;;2.20;;
18188;SDS011;9219;50.396;8.546;2022-07-29T10:57:25;2.93;;;2.40;;
18188;SDS011;9219;50.396;8.546;2022-07-29T11:00:26;5.47;;;2.50;;
18188;SDS011;9219;50.396;8.546;2022-07-29T11:02:58;2.73;;;1.87;;
18188;SDS011;9219;50.396;8.546;2022-07-29T11:05:30;3.40;;;2.00;;
18188;SDS011;9219;50.396;8.546;2022-07-29T11:08:20;2.53;;;2.13;;
18188;SDS011;9219;50.396;8.546;2022-07-29T11:15:58;2.87;;;2.13;;
18188;SDS011;9219;50.396;8.546;2022-07-29T11:18:25;5.10;;;2.53;;
18188;SDS011;9219;50.396;8.546;2022-07-29T11:20:52;2.90;;;1.80;;
18188;SDS011;9219;50.396;8.546;2022-07-29T11:23:24;3.63;;;2.60;;
18188;SDS011;9219;50.396;8.546;2022-07-29T11:28:50;2.73;;;2.07;;
18188;SDS011;9219;50.396;8.546;2022-07-29T11:34:46;4.60;;;2.40;;
18188;SDS011;9219;50.396;8.546;2022-07-29T11:37:20;5.73;;;2.00;;
18188;SDS011;9219;50.396;8.546;2022-07-29T11:42:45;5.07;;;1.93;;
18188;SDS011;9219;50.396;8.546;2022-07-29T11:45:24;2.00;;;1.80;;
18188;SDS011;9219;50.396;8.546;2022-07-29T11:48:19;4.17;;;1.90;;
18188;SDS011;9219;50.396;8.546;2022-07-29T11:53:35;3.23;;;2.20;;
18188;SDS011;9219;50.396;8.546;2022-07-29T11:56:03;2.97;;;2.03;;
18188;SDS011;9219;50.396;8.546;2022-07-29T11:58:35;4.70;;;2.37;;
18188;SDS011;9219;50.396;8.546;2022-07-29T12:01:04;2.77;;;2.37;;
18188;SDS011;9219;50.396;8.546;2022-07-29T12:03:32;2.27;;;1.80;;
18188;SDS011;9219;50.396;8.546;2022-07-29T12:06:02;2.90;;;2.30;;
18188;SDS011;9219;50.396;8.546;2022-07-29T12:08:40;3.80;;;2.27;;
18188;SDS011;9219;50.396;8.546;2022-07-29T12:11:15;4.77;;;2.57;;
18188;SDS011;9219;50.396;8.546;2022-07-29T12:18:58;3.90;;;2.23;;
18188;SDS011;9219;50.396;8.546;2022-07-29T12:21:28;4.93;;;1.80;;
18188;SDS011;9219;50.396;8.546;2022-07-29T12:24:19;3.27;;;1.97;;
18188;SDS011;9219;50.396;8.546;2022-07-29T12:26:53;2.90;;;1.73;;
18188;SDS011;9219;50.396;8.546;2022-07-29T12:29:22;2.10;;;1.90;;
18188;SDS011;9219;50.396;8.546;2022-07-29T12:32:01;3.00;;;2.23;;
18188;SDS011;9219;50.396;8.546;2022-07-29T12:34:41;4.63;;;2.37;;
18188;SDS011;9219;50.396;8.546;2022-07-29T12:42:13;2.37;;;1.90;;
18188;SDS011;9219;50.396;8.546;2022-07-29T12:44:44;3.07;;;2.17;;
18188;SDS011;9219;50.396;8.546;2022-07-29T12:47:12;2.27;;;2.00;;
18188;SDS011;9219;50.396;8.546;2022-07-29T12:49:40;2.50;;;1.63;;
18188;SDS011;9219;50.396;8.546;2022-07-29T12:52:24;2.93;;;2.20;;
18188;SDS011;9219;50.396;8.546;2022-07-29T12:54:53;2.50;;;2.20;;
18188;SDS011;9219;50.396;8.546;2022-07-29T12:57:21;4.93;;;2.23;;
18188;SDS011;9219;50.396;8.546;2022-07-29T13:05:56;1.77;;;1.67;;
18188;SDS011;9219;50.396;8.546;2022-07-29T13:08:24;3.13;;;1.93;;
18188;SDS011;9219;50.396;8.546;2022-07-29T13:10:51;1.63;;;1.53;;
18188;SDS011;9219;50.396;8.546;2022-07-29T13:13:19;2.13;;;1.80;;
18188;SDS011;9219;50.396;8.546;2022-07-29T13:15:53;2.03;;;1.87;;
18188;SDS011;9219;50.396;8.546;2022-07-29T13:18:33;2.37;;;2.17;;
18188;SDS011;9219;50.396;8.546;2022-07-29T13:21:11;3.13;;;1.50;;
18188;SDS011;9219;50.396;8.546;2022-07-29T13:28:44;1.77;;;1.50;;
18188;SDS011;9219;50.396;8.546;2022-07-29T13:31:13;1.93;;;1.70;;
18188;SDS011;9219;50.396;8.546;2022-07-29T13:33:44;3.10;;;1.53;;
18188;SDS011;9219;50.396;8.546;2022-07-29T13:36:12;1.67;;;1.57;;
18188;SDS011;9219;50.396;8.546;2022-07-29T13:38:39;2.33;;;1.97;;
18188;SDS011;9219;50.396;8.546;2022-07-29T13:41:07;3.57;;;1.93;;
18188;SDS011;9219;50.396;8.546;2022-07-29T13:43:38;2.43;;;1.83;;
18188;SDS011;9219;50.396;8.546;2022-07-29T13:46:11;1.70;;;1.60;;
18188;SDS011;9219;50.396;8.546;2022-07-29T13:53:59;2.57;;;1.73;;
18188;SDS011;9219;50.396;8.546;2022-07-29T13:56:27;4.67;;;1.80;;
18188;SDS011;9219;50.396;8.546;2022-07-29T13:58:55;1.63;;;1.23;;
18188;SDS011;9219;50.396;8.546;2022-07-29T14:01:23;2.00;;;1.80;;
18188;SDS011;9219;50.396;8.546;2022-07-29T14:03:51;3.37;;;1.77;;
18188;SDS011;9219;50.396;8.546;2022-07-29T14:06:19;1.83;;;1.73;;
18188;SDS011;9219;50.396;8.546;2022-07-29T14:08:47;2.67;;;1.90;;
18188;SDS011;9219;50.396;8.546;2022-07-29T14:11:16;1.70;;;1.60;;
18188;SDS011;9219;50.396;8.546;2022-07-29T14:19:19;2.47;;;1.47;;
18188;SDS011;9219;50.396;8.546;2022-07-29T14:21:47;1.73;;;1.63;;
18188;SDS011;9219;50.396;8.546;2022-07-29T14:24:15;1.50;;;1.40;;
18188;SDS011;9219;50.396;8.546;2022-07-29T14:26:49;1.97;;;1.70;;
18188;SDS011;9219;50.396;8.546;2022-07-29T14:29:17;2.37;;;1.63;;
18188;SDS011;9219;50.396;8.546;2022-07-29T14:31:45;2.17;;;1.70;;
18188;SDS011;9219;50.396;8.546;2022-07-29T14:34:14;2.50;;;1.97;;
18188;SDS011;9219;50.396;8.546;2022-07-29T14:44:16;7.03;;;2.73;;
18188;SDS011;9219;50.396;8.546;2022-07-29T14:46:45;5.00;;;2.87;;
18188;SDS011;9219;50.396;8.546;2022-07-29T14:49:14;4.07;;;3.30;;
18188;SDS011;9219;50.396;8.546;2022-07-29T14:51:42;5.40;;;3.33;;
18188;SDS011;9219;50.396;8.546;2022-07-29T14:54:09;4.87;;;3.70;;
18188;SDS011;9219;50.396;8.546;2022-07-29T14:56:37;7.73;;;4.40;;
18188;SDS011;9219;50.396;8.546;2022-07-29T14:59:12;4.07;;;3.43;;
18188;SDS011;9219;50.396;8.546;2022-07-29T15:04:22;4.27;;;3.00;;
18188;SDS011;9219;50.396;8.546;2022-07-29T15:06:49;4.70;;;3.17;;
18188;SDS011;9219;50.396;8.546;2022-07-29T15:09:17;3.50;;;3.03;;
18188;SDS011;9219;50.396;8.546;2022-07-29T15:11:45;9.37;;;2.90;;
18188;SDS011;9219;50.396;8.546;2022-07-29T15:14:14;3.30;;;3.00;;
18188;SDS011;9219;50.396;8.546;2022-07-29T15:16:41;6.53;;;3.73;;
18188;SDS011;9219;50.396;8.546;2022-07-29T15:19:13;3.37;;;3.07;;
18188;SDS011;9219;50.396;8.546;2022-07-29T15:21:44;4.33;;;3.33;;
18188;SDS011;9219;50.396;8.546;2022-07-29T15:29:20;4.07;;;3.67;;
18188;SDS011;9219;50.396;8.546;2022-07-29T15:31:48;4.60;;;3.87;;
18188;SDS011;9219;50.396;8.546;2022-07-29T15:34:16;6.00;;;3.87;;
18188;SDS011;9219;50.396;8.546;2022-07-29T15:36:44;6.53;;;3.67;;
18188;SDS011;9219;50.396;8.546;2022-07-29T15:39:18;6.00;;;3.87;;
18188;SDS011;9219;50.396;8.546;2022-07-29T15:41:48;5.83;;;4.20;;
18188;SDS011;9219;50.396;8.546;2022-07-29T15:44:16;5.77;;;3.73;;
18188;SDS011;9219;50.396;8.546;2022-07-29T15:46:45;7.57;;;4.17;;
18188;SDS011;9219;50.396;8.546;2022-07-29T15:54:52;4.80;;;4.30;;
18188;SDS011;9219;50.396;8.546;2022-07-29T15:57:21;9.60;;;4.90;;
18188;SDS011;9219;50.396;8.546;2022-07-29T15:59:49;6.07;;;4.60;;
18188;SDS011;9219;50.396;8.546;2022-07-29T16:02:16;6.47;;;4.53;;
18188;SDS011;9219;50.396;8.546;2022-07-29T16:04:44;8.83;;;4.80;;
18188;SDS011;9219;50.396;8.546;2022-07-29T16:07:11;8.63;;;5.03;;
18188;SDS011;9219;50.396;8.546;2022-07-29T16:09:40;6.07;;;4.33;;
18188;SDS011;9219;50.396;8.546;2022-07-29T16:17:57;6.00;;;4.20;;
18188;SDS011;9219;50.396;8.546;2022-07-29T16:20:25;5.23;;;4.30;;
18188;SDS011;9219;50.396;8.546;2022-07-29T16:22:53;5.57;;;4.17;;
18188;SDS011;9219;50.396;8.546;2022-07-29T16:25:22;7.40;;;4.33;;
18188;SDS011;9219;50.396;8.546;2022-07-29T16:28:10;6.90;;;4.63;;
18188;SDS011;9219;50.396;8.546;2022-07-29T16:30:37;5.67;;;4.47;;
18188;SDS011;9219;50.396;8.546;2022-07-29T16:33:06;5.07;;;4.57;;
18188;SDS011;9219;50.396;8.546;2022-07-29T16:43:34;3.57;;;3.27;;
18188;SDS011;9219;50.396;8.546;2022-07-29T16:46:02;7.57;;;3.90;;
18188;SDS011;9219;50.396;8.546;2022-07-29T16:48:30;4.37;;;3.50;;
18188;SDS011;9219;50.396;8.546;2022-07-29T16:50:57;4.53;;;3.40;;
18188;SDS011;9219;50.396;8.546;2022-07-29T16:53:25;10.67;;;3.73;;
18188;SDS011;9219;50.396;8.546;2022-07-29T16:55:55;6.67;;;3.93;;
18188;SDS011;9219;50.396;8.546;2022-07-29T16:58:23;4.43;;;3.50;;
18188;SDS011;9219;50.396;8.546;2022-07-29T17:03:47;5.67;;;4.10;;
18188;SDS011;9219;50.396;8.546;2022-07-29T17:06:33;5.17;;;2.90;;
18188;SDS011;9219;50.396;8.546;2022-07-29T17:09:02;6.87;;;4.03;;
18188;SDS011;9219;50.396;8.546;2022-07-29T17:11:31;3.20;;;2.90;;
18188;SDS011;9219;50.396;8.546;2022-07-29T17:14:19;6.13;;;3.10;;
18188;SDS011;9219;50.396;8.546;2022-07-29T17:16:49;4.53;;;3.20;;
18188;SDS011;9219;50.396;8.546;2022-07-29T17:19:28;5.83;;;3.50;;
18188;SDS011;9219;50.396;8.546;2022-07-29T17:27:02;7.17;;;3.73;;
18188;SDS011;9219;50.396;8.546;2022-07-29T17:29:30;6.67;;;3.67;;
18188;SDS011;9219;50.396;8.546;2022-07-29T17:31:59;5.63;;;4.10;;
18188;SDS011;9219;50.396;8.546;2022-07-29T17:34:27;12.73;;;4.13;;
18188;SDS011;9219;50.396;8.546;2022-07-29T17:36:55;7.30;;;3.97;;
18188;SDS011;9219;50.396;8.546;2022-07-29T17:39:23;5.30;;;4.43;;
18188;SDS011;9219;50.396;8.546;2022-07-29T17:41:51;6.47;;;3.93;;
18188;SDS011;9219;50.396;8.546;2022-07-29T17:44:20;3.80;;;3.23;;
18188;SDS011;9219;50.396;8.546;2022-07-29T17:52:18;5.93;;;4.27;;
18188;SDS011;9219;50.396;8.546;2022-07-29T17:54:46;4.77;;;3.40;;
18188;SDS011;9219;50.396;8.546;2022-07-29T17:57:13;8.33;;;4.17;;
18188;SDS011;9219;50.396;8.546;2022-07-29T17:59:41;4.20;;;3.63;;
18188;SDS011;9219;50.396;8.546;2022-07-29T18:02:10;4.07;;;3.60;;
18188;SDS011;9219;50.396;8.546;2022-07-29T18:04:39;3.83;;;3.43;;
18188;SDS011;9219;50.396;8.546;2022-07-29T18:07:07;7.33;;;4.13;;
18188;SDS011;9219;50.396;8.546;2022-07-29T18:09:38;4.90;;;3.53;;
18188;SDS011;9219;50.396;8.546;2022-07-29T18:17:25;8.40;;;4.93;;
18188;SDS011;9219;50.396;8.546;2022-07-29T18:20:13;4.13;;;3.70;;
18188;SDS011;9219;50.396;8.546;2022-07-29T18:22:41;5.90;;;4.73;;
18188;SDS011;9219;50.396;8.546;2022-07-29T18:25:08;4.53;;;4.00;;
18188;SDS011;9219;50.396;8.546;2022-07-29T18:27:36;4.93;;;3.97;;
18188;SDS011;9219;50.396;8.546;2022-07-29T18:30:06;8.70;;;5.27;;
18188;SDS011;9219;50.396;8.546;2022-07-29T18:32:36;4.87;;;4.30;;
18188;SDS011;9219;50.396;8.546;2022-07-29T18:37:45;5.10;;;4.60;;
18188;SDS011;9219;50.396;8.546;2022-07-29T18:40:28;5.37;;;4.40;;
18188;SDS011;9219;50.396;8.546;2022-07-29T18:42:56;6.53;;;4.40;;
18188;SDS011;9219;50.396;8.546;2022-07-29T18:45:24;5.80;;;4.40;;
18188;SDS011;9219;50.396;8.546;2022-07-29T18:47:54;5.30;;;4.30;;
18188;SDS011;9219;50.396;8.546;2022-07-29T18:50:22;6.67;;;4.87;;
18188;SDS011;9219;50.396;8.546;2022-07-29T18:52:59;5.33;;;4.73;;
18188;SDS011;9219;50.396;8.546;2022-07-29T19:00:34;6.33;;;3.67;;
18188;SDS011;9219;50.396;8.546;2022-07-29T19:03:03;4.40;;;3.80;;
18188;SDS011;9219;50.396;8.546;2022-07-29T19:05:32;4.20;;;3.47;;
18188;SDS011;9219;50.396;8.546;2022-07-29T19:08:01;5.00;;;3.67;;
18188;SDS011;9219;50.396;8.546;2022-07-29T19:10:29;3.50;;;3.20;;
18188;SDS011;9219;50.396;8.546;2022-07-29T19:12:56;5.07;;;3.37;;
18188;SDS011;9219;50.396;8.546;2022-07-29T19:15:25;5.37;;;4.20;;
18188;SDS011;9219;50.396;8.546;2022-07-29T19:23:02;3.40;;;3.10;;
18188;SDS011;9219;50.396;8.546;2022-07-29T19:25:30;3.67;;;3.27;;
18188;SDS011;9219;50.396;8.546;2022-07-29T19:28:01;3.50;;;3.10;;
18188;SDS011;9219;50.396;8.546;2022-07-29T19:30:29;3.77;;;3.30;;
18188;SDS011;9219;50.396;8.546;2022-07-29T19:32:56;3.20;;;2.77;;
18188;SDS011;9219;50.396;8.546;2022-07-29T19:35:24;5.23;;;2.83;;
18188;SDS011;9219;50.396;8.546;2022-07-29T19:38:09;3.50;;;3.00;;